createdAt,value
2018-02-17T00:02:12.560Z,9.70
2018-02-17T00:04:38.849Z,10.93
2018-02-17T00:07:05.927Z,9.80
2018-02-17T00:09:32.267Z,9.37
2018-02-17T00:11:58.528Z,10.40
2018-02-17T00:14:24.807Z,10.73
2018-02-17T00:16:51.072Z,12.00
2018-02-17T00:19:17.375Z,17.83
2018-02-17T00:21:43.644Z,14.50
2018-02-17T00:24:09.990Z,21.13
2018-02-17T00:26:36.272Z,14.00
2018-02-17T00:29:02.587Z,11.90
2018-02-17T00:31:29.615Z,11.27
2018-02-17T00:33:55.872Z,10.23
2018-02-17T00:36:22.860Z,12.03
2018-02-17T00:38:49.142Z,12.17
2018-02-17T00:41:15.428Z,13.33
2018-02-17T00:43:41.686Z,12.87
2018-02-17T00:46:07.992Z,13.70
2018-02-17T00:48:34.251Z,14.17
2018-02-17T00:51:00.497Z,13.60
2018-02-17T00:53:26.805Z,12.83
2018-02-17T00:55:53.079Z,12.50
2018-02-17T00:58:20.089Z,12.40
2018-02-17T01:00:46.465Z,11.90
2018-02-17T01:03:13.485Z,11.60
2018-02-17T01:05:39.741Z,13.67
2018-02-17T01:08:06.023Z,11.77
2018-02-17T01:10:32.276Z,10.97
2018-02-17T01:12:58.610Z,10.70
2018-02-17T01:15:24.889Z,10.40
2018-02-17T01:17:51.126Z,11.20
2018-02-17T01:20:17.379Z,9.97
2018-02-17T01:22:43.656Z,10.80
2018-02-17T01:25:10.665Z,10.77
2018-02-17T01:27:36.900Z,10.67
2018-02-17T01:30:03.156Z,11.33
2018-02-17T01:32:29.402Z,12.07
2018-02-17T01:34:55.661Z,10.33
2018-02-17T01:37:21.931Z,12.10
2018-02-17T01:39:48.207Z,12.27
2018-02-17T01:42:14.460Z,11.37
2018-02-17T01:44:40.700Z,12.60
2018-02-17T01:47:06.983Z,11.77
2018-02-17T01:49:33.232Z,10.80
2018-02-17T01:51:59.491Z,11.27
2018-02-17T01:54:25.803Z,11.70
2018-02-17T01:56:52.044Z,12.43
2018-02-17T01:59:18.277Z,14.10
2018-02-17T02:01:44.532Z,12.50
2018-02-17T02:04:10.894Z,12.47
2018-02-17T02:06:37.152Z,11.90
2018-02-17T02:09:03.396Z,12.40
2018-02-17T02:11:29.645Z,13.30
2018-02-17T02:13:55.953Z,12.00
2018-02-17T02:16:22.220Z,11.73
2018-02-17T02:18:49.241Z,13.23
2018-02-17T02:21:15.484Z,12.43
2018-02-17T02:23:41.771Z,12.50
2018-02-17T02:26:08.028Z,11.63
2018-02-17T02:28:34.278Z,12.70
2018-02-17T02:31:00.564Z,12.67
2018-02-17T02:33:26.817Z,11.77
2018-02-17T02:35:53.077Z,12.13
2018-02-17T02:38:20.065Z,13.20
2018-02-17T02:40:46.288Z,12.03
2018-02-17T02:43:12.540Z,11.50
2018-02-17T02:45:38.772Z,11.20
2018-02-17T02:48:05.028Z,10.70
2018-02-17T02:50:31.314Z,13.03
2018-02-17T02:52:57.584Z,12.93
2018-02-17T02:55:23.857Z,14.37
2018-02-17T02:57:50.112Z,11.70
2018-02-17T03:00:16.407Z,13.47
2018-02-17T03:02:42.652Z,13.50
2018-02-17T03:05:08.937Z,14.50
2018-02-17T03:07:35.212Z,13.23
2018-02-17T03:10:01.476Z,13.70
2018-02-17T03:12:27.796Z,14.30
2018-02-17T03:14:54.065Z,13.37
2018-02-17T03:17:20.353Z,13.23
2018-02-17T03:19:46.616Z,13.40
2018-02-17T03:22:12.921Z,15.13
2018-02-17T03:24:39.162Z,13.90
2018-02-17T03:27:05.460Z,13.57
2018-02-17T03:29:31.713Z,14.90
2018-02-17T03:31:57.963Z,12.77
2018-02-17T03:34:24.304Z,11.90
2018-02-17T03:36:50.582Z,13.97
2018-02-17T03:39:16.842Z,13.27
2018-02-17T03:41:43.084Z,13.90
2018-02-17T03:44:09.352Z,13.30
2018-02-17T03:46:36.364Z,12.27
2018-02-17T03:49:02.675Z,15.00
2018-02-17T03:51:28.911Z,13.20
2018-02-17T03:53:55.212Z,13.13
2018-02-17T03:56:21.468Z,12.30
2018-02-17T03:58:48.277Z,13.10
2018-02-17T04:01:14.527Z,13.43
2018-02-17T04:03:40.828Z,13.20
2018-02-17T04:06:07.110Z,12.73
2018-02-17T04:08:33.370Z,14.87
2018-02-17T04:11:00.359Z,13.70
2018-02-17T04:13:26.636Z,12.73
2018-02-17T04:15:53.620Z,12.47
2018-02-17T04:18:19.900Z,13.43
2018-02-17T04:20:46.190Z,13.37
2018-02-17T04:23:12.475Z,15.07
2018-02-17T04:25:39.509Z,14.53
2018-02-17T04:28:06.531Z,13.50
2018-02-17T04:30:32.827Z,14.30
2018-02-17T04:32:59.094Z,13.43
2018-02-17T04:35:25.448Z,13.67
2018-02-17T04:37:51.673Z,13.60
2018-02-17T04:40:24.955Z,14.50
2018-02-17T04:42:57.292Z,13.10
2018-02-17T04:45:23.573Z,13.60
2018-02-17T04:47:55.999Z,14.23
2018-02-17T04:50:26.227Z,14.13
2018-02-17T04:56:09.684Z,13.30
2018-02-17T04:58:37.268Z,12.40
2018-02-17T05:01:08.349Z,13.50
2018-02-17T05:03:38.688Z,13.47
2018-02-17T05:09:07.970Z,13.80
2018-02-17T05:11:34.260Z,12.93
2018-02-17T05:14:03.552Z,15.00
2018-02-17T05:16:36.144Z,13.67
2018-02-17T05:19:07.303Z,14.87
2018-02-17T05:21:33.622Z,14.10
2018-02-17T05:24:01.821Z,14.70
2018-02-17T05:26:29.995Z,14.87
2018-02-17T05:28:56.385Z,13.70
2018-02-17T05:31:23.054Z,15.63
2018-02-17T05:33:52.353Z,14.60
2018-02-17T05:36:22.648Z,14.77
2018-02-17T05:38:58.963Z,15.77
2018-02-17T05:41:39.084Z,13.50
2018-02-17T05:44:05.376Z,15.70
2018-02-17T05:46:44.612Z,14.73
2018-02-17T05:52:17.769Z,14.20
2018-02-17T05:54:44.003Z,14.07
2018-02-17T05:57:10.247Z,15.07
2018-02-17T05:59:37.240Z,13.90
2018-02-17T06:02:03.500Z,13.73
2018-02-17T06:04:29.765Z,15.37
2018-02-17T06:06:56.727Z,13.93
2018-02-17T06:09:22.987Z,13.87
2018-02-17T06:11:49.262Z,14.60
2018-02-17T06:14:16.266Z,13.60
2018-02-17T06:16:42.597Z,12.53
2018-02-17T06:19:08.864Z,13.70
2018-02-17T06:21:35.116Z,14.10
2018-02-17T06:24:01.428Z,13.57
2018-02-17T06:26:27.725Z,15.30
2018-02-17T06:28:54.023Z,13.40
2018-02-17T06:31:20.258Z,14.83
2018-02-17T06:33:46.553Z,14.00
2018-02-17T06:36:13.549Z,14.27
2018-02-17T06:38:39.885Z,13.67
2018-02-17T06:41:06.154Z,14.00
2018-02-17T06:43:33.199Z,15.20
2018-02-17T06:45:59.624Z,13.97
2018-02-17T06:48:25.885Z,12.80
2018-02-17T06:50:52.900Z,13.77
2018-02-17T06:53:19.152Z,13.63
2018-02-17T06:55:46.152Z,13.40
2018-02-17T06:58:12.414Z,12.27
2018-02-17T07:00:38.730Z,13.83
2018-02-17T07:03:04.993Z,13.53
2018-02-17T07:05:32.008Z,12.97
2018-02-17T07:07:58.257Z,13.37
2018-02-17T07:10:25.248Z,14.40
2018-02-17T07:12:51.496Z,14.93
2018-02-17T07:15:17.783Z,13.63
2018-02-17T07:17:44.011Z,13.97
2018-02-17T07:20:10.258Z,14.20
2018-02-17T07:22:36.572Z,14.03
2018-02-17T07:25:02.816Z,15.07
2018-02-17T07:27:29.066Z,14.73
2018-02-17T07:29:55.325Z,13.83
2018-02-17T07:32:21.608Z,13.40
2018-02-17T07:34:47.874Z,13.47
2018-02-17T07:37:14.106Z,15.20
2018-02-17T07:39:40.356Z,14.00
2018-02-17T07:42:07.354Z,13.20
2018-02-17T07:44:33.621Z,13.70
2018-02-17T07:46:59.968Z,13.20
2018-02-17T07:49:26.997Z,13.27
2018-02-17T07:51:53.256Z,12.60
2018-02-17T07:54:20.320Z,13.13
2018-02-17T07:56:46.672Z,12.43
2018-02-17T07:59:13.035Z,14.27
2018-02-17T08:01:40.291Z,12.90
2018-02-17T08:04:06.617Z,14.60
2018-02-17T08:06:32.940Z,12.87
2018-02-17T08:08:59.207Z,13.97
2018-02-17T08:11:25.474Z,14.20
2018-02-17T08:13:51.726Z,12.53
2018-02-17T08:16:18.071Z,13.77
2018-02-17T08:18:44.362Z,14.50
2018-02-17T08:21:10.606Z,14.77
2018-02-17T08:23:36.868Z,13.87
2018-02-17T08:26:03.212Z,15.63
2018-02-17T08:28:30.228Z,14.37
2018-02-17T08:30:56.489Z,13.77
2018-02-17T08:33:23.736Z,14.27
2018-02-17T08:35:50.019Z,13.53
2018-02-17T08:38:16.281Z,14.77
2018-02-17T08:40:42.526Z,16.67
2018-02-17T08:43:09.510Z,13.37
2018-02-17T08:45:35.808Z,13.17
2018-02-17T08:48:02.827Z,11.20
2018-02-17T08:50:29.088Z,12.97
2018-02-17T08:52:56.218Z,10.10
2018-02-17T08:55:22.545Z,11.57
2018-02-17T08:57:48.833Z,12.67
2018-02-17T09:00:15.108Z,12.07
2018-02-17T09:02:41.354Z,12.07
2018-02-17T09:05:08.359Z,13.27
2018-02-17T09:07:34.610Z,11.73
2018-02-17T09:10:00.835Z,11.10
2018-02-17T09:12:27.071Z,10.07
2018-02-17T09:14:53.387Z,12.00
2018-02-17T09:17:19.621Z,12.00
2018-02-17T09:19:45.880Z,13.43
2018-02-17T09:22:12.959Z,12.70
2018-02-17T09:24:39.274Z,11.57
2018-02-17T09:27:05.620Z,12.20
2018-02-17T09:29:31.986Z,12.13
2018-02-17T09:31:58.252Z,12.90
2018-02-17T09:34:25.593Z,12.93
2018-02-17T09:36:52.824Z,11.87
2018-02-17T09:39:19.090Z,13.07
2018-02-17T09:41:46.099Z,14.87
2018-02-17T09:44:12.372Z,14.07
2018-02-17T09:46:39.401Z,13.40
2018-02-17T09:49:05.723Z,13.87
2018-02-17T09:51:31.986Z,16.53
2018-02-17T09:53:58.992Z,15.53
2018-02-17T09:56:25.252Z,15.70
2018-02-17T09:58:52.259Z,15.23
2018-02-17T10:01:18.536Z,14.77
2018-02-17T10:03:45.561Z,16.77
2018-02-17T10:06:18.950Z,16.50
2018-02-17T10:08:45.264Z,17.23
2018-02-17T10:11:11.629Z,15.40
2018-02-17T10:13:37.901Z,15.53
2018-02-17T10:16:04.158Z,15.23
2018-02-17T10:18:30.454Z,16.67
2018-02-17T10:20:56.720Z,16.57
2018-02-17T10:23:23.133Z,15.60
2018-02-17T10:25:49.473Z,15.30
2018-02-17T10:28:15.875Z,16.07
2018-02-17T10:30:46.652Z,16.30
2018-02-17T10:33:12.898Z,16.90
2018-02-17T10:35:39.242Z,17.00
2018-02-17T10:38:05.543Z,15.23
2018-02-17T10:40:31.796Z,17.10
2018-02-17T10:42:58.078Z,17.57
2018-02-17T10:45:24.356Z,16.40
2018-02-17T10:47:50.603Z,16.63
2018-02-17T10:50:17.598Z,15.63
2018-02-17T10:52:43.829Z,16.00
2018-02-17T10:55:10.157Z,17.70
2018-02-17T10:57:36.421Z,19.20
2018-02-17T11:00:02.721Z,17.73
2018-02-17T11:02:28.961Z,18.60
2018-02-17T11:04:55.305Z,20.10
2018-02-17T11:07:21.579Z,18.90
2018-02-17T11:09:47.838Z,20.03
2018-02-17T11:12:14.168Z,18.83
2018-02-17T11:14:40.431Z,18.10
2018-02-17T11:17:07.743Z,19.37
2018-02-17T11:19:37.375Z,19.00
2018-02-17T11:22:13.728Z,18.97
2018-02-17T11:24:43.724Z,20.30
2018-02-17T11:27:11.092Z,18.70
2018-02-17T11:29:37.429Z,20.43
2018-02-17T11:32:17.207Z,22.00
2018-02-17T11:34:44.528Z,20.90
2018-02-17T11:37:10.793Z,20.33
2018-02-17T11:39:37.143Z,20.00
2018-02-17T11:42:05.218Z,18.70
2018-02-17T11:44:49.796Z,18.63
2018-02-17T11:47:16.088Z,19.77
2018-02-17T11:49:43.367Z,19.87
2018-02-17T11:52:09.683Z,22.07
2018-02-17T11:54:40.431Z,19.30
2018-02-17T11:57:08.524Z,19.50
2018-02-17T11:59:34.856Z,20.17
2018-02-17T12:02:03.213Z,19.80
2018-02-17T12:04:31.530Z,20.67
2018-02-17T12:06:57.810Z,19.33
2018-02-17T12:09:24.901Z,20.47
2018-02-17T12:11:52.203Z,20.77
2018-02-17T12:14:20.557Z,21.97
2018-02-17T12:16:46.901Z,21.57
2018-02-17T12:19:14.182Z,18.27
2018-02-17T12:21:41.254Z,16.10
2018-02-17T12:24:07.618Z,18.90
2018-02-17T12:26:33.919Z,17.17
2018-02-17T12:29:00.224Z,20.27
2018-02-17T12:31:27.300Z,19.20
2018-02-17T12:33:53.627Z,18.90
2018-02-17T12:36:19.957Z,20.67
2018-02-17T12:38:46.287Z,19.30
2018-02-17T12:41:12.619Z,16.77
2018-02-17T12:43:38.964Z,17.30
2018-02-17T12:46:06.301Z,18.97
2018-02-17T12:48:32.601Z,17.63
2018-02-17T12:50:58.963Z,17.70
2018-02-17T12:53:30.747Z,16.57
2018-02-17T12:55:57.061Z,18.87
2018-02-17T12:58:23.404Z,17.50
2018-02-17T13:00:49.732Z,17.80
2018-02-17T13:03:16.117Z,19.20
2018-02-17T13:05:44.237Z,16.03
2018-02-17T13:08:12.588Z,15.93
2018-02-17T13:10:41.734Z,17.43
2018-02-17T13:13:09.058Z,15.20
2018-02-17T13:15:35.406Z,16.40
2018-02-17T13:18:14.322Z,16.67
2018-02-17T13:20:40.637Z,16.10
2018-02-17T13:23:07.601Z,18.20
2018-02-17T13:25:33.841Z,19.70
2018-02-17T13:28:00.080Z,19.90
2018-02-17T13:30:26.325Z,18.87
2018-02-17T13:32:52.612Z,17.67
2018-02-17T13:35:18.849Z,15.93
2018-02-17T13:37:45.155Z,19.10
2018-02-17T13:40:12.175Z,17.87
2018-02-17T13:42:38.418Z,16.37
2018-02-17T13:45:05.410Z,17.90
2018-02-17T13:47:31.687Z,17.00
2018-02-17T13:49:57.964Z,17.00
2018-02-17T13:52:24.286Z,17.67
2018-02-17T13:54:50.602Z,16.50
2018-02-17T13:57:17.650Z,17.87
2018-02-17T13:59:44.039Z,18.43
2018-02-17T14:02:10.208Z,18.43
2018-02-17T14:04:37.256Z,17.77
2018-02-17T14:07:04.264Z,17.17
2018-02-17T14:09:30.554Z,18.50
2018-02-17T14:11:57.789Z,16.90
2018-02-17T14:14:24.121Z,16.80
2018-02-17T14:16:51.128Z,17.10
2018-02-17T14:19:17.414Z,16.00
2018-02-17T14:21:43.689Z,16.50
2018-02-17T14:24:10.772Z,16.37
2018-02-17T14:26:37.757Z,16.20
2018-02-17T14:29:04.030Z,15.93
2018-02-17T14:31:30.285Z,15.93
2018-02-17T14:33:56.582Z,15.00
2018-02-17T14:36:22.840Z,14.70
2018-02-17T14:38:49.843Z,14.07
2018-02-17T14:41:16.108Z,14.70
2018-02-17T14:43:43.174Z,14.30
2018-02-17T14:46:09.422Z,14.20
2018-02-17T14:48:35.715Z,14.37
2018-02-17T14:51:02.699Z,12.27
2018-02-17T14:53:28.973Z,13.23
2018-02-17T14:55:55.223Z,13.37
2018-02-17T14:58:22.261Z,15.83
2018-02-17T15:00:48.521Z,17.23
2018-02-17T15:03:14.821Z,17.37
2018-02-17T15:05:41.085Z,17.87
2018-02-17T15:08:07.346Z,16.80
2018-02-17T15:10:34.329Z,15.93
2018-02-17T15:13:00.618Z,16.60
2018-02-17T15:15:26.908Z,17.33
2018-02-17T15:17:53.928Z,16.60
2018-02-17T15:20:20.187Z,16.50
2018-02-17T15:22:47.212Z,16.23
2018-02-17T15:25:13.500Z,15.47
2018-02-17T15:27:39.778Z,16.13
2018-02-17T15:30:06.770Z,11.90
2018-02-17T15:32:33.045Z,10.90
2018-02-17T15:34:59.348Z,7.93
2018-02-17T15:37:25.602Z,8.20
2018-02-17T15:39:51.914Z,9.33
2018-02-17T15:42:18.178Z,10.10
2018-02-17T15:44:45.184Z,9.20
2018-02-17T15:47:11.469Z,10.00
2018-02-17T15:49:38.441Z,9.53
2018-02-17T15:52:04.675Z,9.60
2018-02-17T15:54:30.935Z,10.73
2018-02-17T15:56:57.223Z,9.87
2018-02-17T15:59:23.500Z,11.93
2018-02-17T16:01:49.746Z,14.87
2018-02-17T16:04:16.806Z,14.63
2018-02-17T16:06:43.877Z,13.90
2018-02-17T16:09:10.200Z,12.43
2018-02-17T16:11:36.512Z,14.53
2018-02-17T16:14:02.742Z,13.83
2018-02-17T16:16:29.770Z,14.63
2018-02-17T16:18:56.034Z,12.10
2018-02-17T16:21:22.294Z,15.20
2018-02-17T16:23:48.550Z,14.00
2018-02-17T16:26:14.809Z,15.03
2018-02-17T16:28:41.829Z,14.17
2018-02-17T16:31:08.124Z,15.37
2018-02-17T16:33:34.419Z,15.50
2018-02-17T16:36:01.424Z,15.07
2018-02-17T16:38:27.669Z,14.90
2018-02-17T16:40:53.913Z,14.23
2018-02-17T16:43:20.951Z,14.20
2018-02-17T16:45:47.238Z,16.43
2018-02-17T16:48:13.501Z,15.03
2018-02-17T16:50:39.779Z,15.60
2018-02-17T16:53:06.087Z,16.70
2018-02-17T16:55:33.106Z,14.10
2018-02-17T16:57:59.407Z,16.00
2018-02-17T17:00:25.698Z,16.80
2018-02-17T17:02:52.716Z,14.83
2018-02-17T17:05:18.976Z,14.70
2018-02-17T17:07:46.006Z,16.53
2018-02-17T17:10:12.268Z,15.27
2018-02-17T17:12:38.604Z,15.67
2018-02-17T17:15:04.889Z,13.67
2018-02-17T17:17:31.140Z,16.27
2018-02-17T17:19:58.169Z,15.07
2018-02-17T17:22:24.481Z,16.10
2018-02-17T17:24:50.755Z,14.87
2018-02-17T17:27:17.775Z,15.07
2018-02-17T17:29:44.077Z,17.20
2018-02-17T17:32:10.391Z,14.30
2018-02-17T17:34:36.658Z,16.80
2018-02-17T17:37:02.897Z,15.17
2018-02-17T17:39:29.131Z,15.70
2018-02-17T17:41:55.436Z,15.57
2018-02-17T17:44:21.648Z,16.17
2018-02-17T17:46:47.880Z,16.73
2018-02-17T17:49:14.131Z,15.33
2018-02-17T17:51:41.120Z,14.40
2018-02-17T17:54:08.102Z,14.40
2018-02-17T17:56:34.392Z,16.20
2018-02-17T17:59:01.386Z,17.23
2018-02-17T18:01:27.640Z,16.60
2018-02-17T18:03:53.970Z,19.13
2018-02-17T18:06:20.248Z,19.10
2018-02-17T18:08:46.510Z,16.80
2018-02-17T18:11:13.576Z,16.37
2018-02-17T18:13:39.834Z,17.10
2018-02-17T18:16:06.105Z,17.77
2018-02-17T18:18:32.396Z,17.23
2018-02-17T18:20:59.385Z,16.87
2018-02-17T18:23:25.647Z,18.50
2018-02-17T18:25:51.885Z,15.63
2018-02-17T18:28:19.006Z,18.17
2018-02-17T18:30:45.257Z,16.83
2018-02-17T18:33:11.511Z,16.03
2018-02-17T18:35:38.519Z,15.20
2018-02-17T18:38:04.807Z,18.63
2018-02-17T18:40:31.062Z,17.40
2018-02-17T18:42:57.618Z,15.30
2018-02-17T18:45:23.881Z,15.97
2018-02-17T18:47:50.937Z,15.30
2018-02-17T18:50:18.230Z,18.07
2018-02-17T18:52:44.524Z,16.30
2018-02-17T18:55:10.807Z,18.37
2018-02-17T18:57:37.061Z,16.60
2018-02-17T19:00:04.187Z,18.07
2018-02-17T19:02:30.453Z,17.37
2018-02-17T19:04:57.456Z,18.50
2018-02-17T19:07:23.705Z,20.13
2018-02-17T19:09:49.956Z,21.50
2018-02-17T19:12:16.977Z,21.87
2018-02-17T19:14:43.228Z,19.23
2018-02-17T19:17:21.385Z,19.77
2018-02-17T19:19:47.625Z,20.57
2018-02-17T19:22:13.872Z,20.40
2018-02-17T19:24:40.107Z,22.17
2018-02-17T19:27:06.353Z,21.57
2018-02-17T19:29:33.351Z,21.73
2018-02-17T19:31:59.677Z,18.90
2018-02-17T19:34:25.937Z,19.07
2018-02-17T19:36:52.231Z,19.43
2018-02-17T19:39:18.469Z,20.07
2018-02-17T19:41:44.723Z,18.90
2018-02-17T19:44:11.401Z,17.60
2018-02-17T19:46:38.414Z,17.27
2018-02-17T19:49:04.698Z,18.03
2018-02-17T19:51:30.935Z,18.43
2018-02-17T19:53:57.197Z,20.10
2018-02-17T19:56:23.468Z,15.90
2018-02-17T19:58:50.444Z,15.20
2018-02-17T20:01:16.708Z,17.83
2018-02-17T20:03:43.298Z,15.63
2018-02-17T20:06:09.578Z,16.00
2018-02-17T20:08:35.868Z,14.80
2018-02-17T20:11:02.131Z,15.90
2018-02-17T20:13:28.440Z,15.80
2018-02-17T20:15:54.694Z,13.97
2018-02-17T20:18:21.940Z,14.47
2018-02-17T20:20:48.231Z,13.47
2018-02-17T20:23:14.503Z,13.57
2018-02-17T20:25:40.799Z,12.50
2018-02-17T20:28:07.059Z,14.13
2018-02-17T20:30:33.357Z,14.23
2018-02-17T20:32:59.605Z,13.40
2018-02-17T20:35:25.957Z,13.60
2018-02-17T20:37:52.251Z,14.53
2018-02-17T20:40:18.503Z,14.97
2018-02-17T20:42:44.808Z,15.30
2018-02-17T20:45:11.089Z,12.90
2018-02-17T20:47:37.365Z,13.60
2018-02-17T20:50:03.598Z,13.40
2018-02-17T20:52:29.852Z,12.47
2018-02-17T20:54:56.128Z,14.10
2018-02-17T20:57:23.174Z,12.50
2018-02-17T20:59:50.212Z,13.10
2018-02-17T21:02:17.285Z,14.00
2018-02-17T21:04:43.529Z,14.03
2018-02-17T21:07:09.786Z,13.93
2018-02-17T21:09:36.040Z,11.83
2018-02-17T21:12:02.318Z,10.33
2018-02-17T21:14:28.948Z,12.20
2018-02-17T21:16:55.248Z,11.17
2018-02-17T21:19:21.515Z,11.20
2018-02-17T21:21:47.807Z,10.63
2018-02-17T21:24:14.067Z,11.03
2018-02-17T21:26:40.302Z,11.60
2018-02-17T21:29:06.625Z,15.80
2018-02-17T21:31:32.893Z,10.40
2018-02-17T21:33:59.153Z,12.33
2018-02-17T21:36:25.429Z,10.50
2018-02-17T21:38:51.699Z,16.47
2018-02-17T21:41:17.955Z,11.67
2018-02-17T21:43:44.957Z,10.90
2018-02-17T21:46:11.242Z,13.53
2018-02-17T21:48:38.289Z,11.47
2018-02-17T21:51:05.327Z,12.43
2018-02-17T21:53:32.380Z,12.60
2018-02-17T21:55:59.838Z,12.50
2018-02-17T21:58:26.858Z,12.60
2018-02-17T22:00:53.122Z,12.33
2018-02-17T22:03:20.190Z,12.97
2018-02-17T22:05:46.510Z,12.30
2018-02-17T22:08:19.837Z,10.87
2018-02-17T22:10:46.090Z,10.83
2018-02-17T22:13:12.356Z,11.93
2018-02-17T22:15:38.608Z,14.47
2018-02-17T22:18:04.863Z,14.00
2018-02-17T22:20:31.152Z,13.80
2018-02-17T22:22:57.394Z,13.63
2018-02-17T22:25:23.656Z,10.40
2018-02-17T22:27:49.897Z,12.33
2018-02-17T22:30:16.170Z,12.00
2018-02-17T22:32:42.450Z,11.53
2018-02-17T22:35:08.710Z,12.03
2018-02-17T22:37:35.689Z,12.37
2018-02-17T22:40:01.929Z,11.60
2018-02-17T22:42:28.291Z,10.60
2018-02-17T22:44:54.572Z,10.30
2018-02-17T22:47:20.864Z,9.97
2018-02-17T22:49:47.133Z,10.27
2018-02-17T22:52:13.377Z,11.83
2018-02-17T22:54:39.681Z,11.10
2018-02-17T22:57:05.932Z,11.40
2018-02-17T22:59:32.202Z,11.30
2018-02-17T23:01:58.469Z,11.40
2018-02-17T23:04:25.512Z,11.87
2018-02-17T23:06:52.530Z,12.47
2018-02-17T23:09:18.781Z,9.93
2018-02-17T23:11:45.847Z,11.10
2018-02-17T23:14:12.092Z,11.67
2018-02-17T23:16:38.349Z,11.47
2018-02-17T23:19:04.614Z,10.70
2018-02-17T23:21:31.614Z,9.83
2018-02-17T23:23:57.864Z,11.33
2018-02-17T23:26:24.124Z,11.90
2018-02-17T23:28:51.116Z,12.47
2018-02-17T23:31:17.363Z,12.97
2018-02-17T23:33:43.620Z,15.00
2018-02-17T23:36:09.876Z,15.67
2018-02-17T23:38:36.126Z,14.63
2018-02-17T23:41:02.398Z,10.77
2018-02-17T23:43:28.652Z,14.90
2018-02-17T23:45:55.657Z,11.70
2018-02-17T23:48:21.925Z,12.00
2018-02-17T23:50:49.878Z,11.43
2018-02-17T23:53:16.107Z,10.97
2018-02-17T23:55:42.366Z,12.60
2018-02-17T23:58:08.657Z,15.50
